sensor_id;sensor_type;location;lat;lon;timestamp;P1;durP1;ratioP1;P2;durP2;ratioP2
21420;SDS011;10871;50.144;8.428;2024-03-08T00:01:00;28.45;;;17.10;;
21420;SDS011;10871;50.144;8.428;2024-03-08T00:03:27;28.52;;;17.52;;
21420;SDS011;10871;50.144;8.428;2024-03-08T00:05:56;27.33;;;17.40;;
21420;SDS011;10871;50.144;8.428;2024-03-08T00:08:23;27.25;;;16.67;;
21420;SDS011;10871;50.144;8.428;2024-03-08T00:10:51;28.85;;;17.20;;
21420;SDS011;10871;50.144;8.428;2024-03-08T00:13:17;27.38;;;17.33;;
21420;SDS011;10871;50.144;8.428;2024-03-08T00:15:44;29.60;;;17.63;;
21420;SDS011;10871;50.144;8.428;2024-03-08T00:18:11;24.90;;;17.05;;
21420;SDS011;10871;50.144;8.428;2024-03-08T00:20:38;27.27;;;17.73;;
21420;SDS011;10871;50.144;8.428;2024-03-08T00:23:05;27.10;;;17.02;;
21420;SDS011;10871;50.144;8.428;2024-03-08T00:25:31;29.55;;;18.00;;
21420;SDS011;10871;50.144;8.428;2024-03-08T00:27:58;31.17;;;17.80;;
21420;SDS011;10871;50.144;8.428;2024-03-08T00:30:26;25.58;;;16.85;;
21420;SDS011;10871;50.144;8.428;2024-03-08T00:32:53;28.20;;;17.23;;
21420;SDS011;10871;50.144;8.428;2024-03-08T00:35:19;28.73;;;17.08;;
21420;SDS011;10871;50.144;8.428;2024-03-08T00:37:46;30.63;;;18.25;;
21420;SDS011;10871;50.144;8.428;2024-03-08T00:40:13;29.17;;;17.50;;
21420;SDS011;10871;50.144;8.428;2024-03-08T00:42:40;30.73;;;17.40;;
21420;SDS011;10871;50.144;8.428;2024-03-08T00:45:07;29.00;;;17.65;;
21420;SDS011;10871;50.144;8.428;2024-03-08T00:47:34;28.30;;;17.83;;
21420;SDS011;10871;50.144;8.428;2024-03-08T00:50:01;27.70;;;16.23;;
21420;SDS011;10871;50.144;8.428;2024-03-08T00:52:30;29.15;;;18.00;;
21420;SDS011;10871;50.144;8.428;2024-03-08T00:54:57;27.25;;;16.60;;
21420;SDS011;10871;50.144;8.428;2024-03-08T00:57:24;29.45;;;17.33;;
21420;SDS011;10871;50.144;8.428;2024-03-08T00:59:51;29.83;;;17.23;;
21420;SDS011;10871;50.144;8.428;2024-03-08T01:02:19;31.48;;;18.42;;
21420;SDS011;10871;50.144;8.428;2024-03-08T01:04:46;32.90;;;17.50;;
21420;SDS011;10871;50.144;8.428;2024-03-08T01:07:15;30.40;;;17.20;;
21420;SDS011;10871;50.144;8.428;2024-03-08T01:09:42;29.45;;;17.30;;
21420;SDS011;10871;50.144;8.428;2024-03-08T01:12:08;29.92;;;17.70;;
21420;SDS011;10871;50.144;8.428;2024-03-08T01:14:37;28.33;;;18.13;;
21420;SDS011;10871;50.144;8.428;2024-03-08T01:17:04;30.73;;;16.73;;
21420;SDS011;10871;50.144;8.428;2024-03-08T01:19:31;29.00;;;17.15;;
21420;SDS011;10871;50.144;8.428;2024-03-08T01:21:59;31.20;;;17.30;;
21420;SDS011;10871;50.144;8.428;2024-03-08T01:24:27;26.98;;;17.15;;
21420;SDS011;10871;50.144;8.428;2024-03-08T01:26:54;26.77;;;16.65;;
21420;SDS011;10871;50.144;8.428;2024-03-08T01:29:20;33.75;;;18.35;;
21420;SDS011;10871;50.144;8.428;2024-03-08T01:31:47;26.48;;;16.90;;
21420;SDS011;10871;50.144;8.428;2024-03-08T01:34:13;26.83;;;16.80;;
21420;SDS011;10871;50.144;8.428;2024-03-08T01:36:40;28.48;;;17.60;;
21420;SDS011;10871;50.144;8.428;2024-03-08T01:39:07;29.63;;;17.55;;
21420;SDS011;10871;50.144;8.428;2024-03-08T01:41:35;28.13;;;17.67;;
21420;SDS011;10871;50.144;8.428;2024-03-08T01:44:02;29.63;;;17.98;;
21420;SDS011;10871;50.144;8.428;2024-03-08T01:46:29;30.20;;;18.30;;
21420;SDS011;10871;50.144;8.428;2024-03-08T01:48:57;35.17;;;18.08;;
21420;SDS011;10871;50.144;8.428;2024-03-08T01:51:24;31.85;;;17.73;;
21420;SDS011;10871;50.144;8.428;2024-03-08T01:53:52;30.58;;;17.92;;
21420;SDS011;10871;50.144;8.428;2024-03-08T01:56:18;31.98;;;18.35;;
21420;SDS011;10871;50.144;8.428;2024-03-08T01:58:45;28.27;;;17.00;;
21420;SDS011;10871;50.144;8.428;2024-03-08T02:01:14;29.33;;;17.40;;
21420;SDS011;10871;50.144;8.428;2024-03-08T02:03:42;31.55;;;17.98;;
21420;SDS011;10871;50.144;8.428;2024-03-08T02:06:11;27.73;;;17.35;;
21420;SDS011;10871;50.144;8.428;2024-03-08T02:08:38;30.75;;;17.75;;
21420;SDS011;10871;50.144;8.428;2024-03-08T02:11:05;28.35;;;17.63;;
21420;SDS011;10871;50.144;8.428;2024-03-08T02:13:31;32.10;;;18.42;;
21420;SDS011;10871;50.144;8.428;2024-03-08T02:15:59;27.80;;;17.42;;
21420;SDS011;10871;50.144;8.428;2024-03-08T02:18:27;30.55;;;18.27;;
21420;SDS011;10871;50.144;8.428;2024-03-08T02:20:55;31.38;;;17.85;;
21420;SDS011;10871;50.144;8.428;2024-03-08T02:23:22;32.92;;;17.17;;
21420;SDS011;10871;50.144;8.428;2024-03-08T02:25:50;32.58;;;18.55;;
21420;SDS011;10871;50.144;8.428;2024-03-08T02:28:17;29.83;;;17.70;;
21420;SDS011;10871;50.144;8.428;2024-03-08T02:30:47;32.28;;;18.95;;
21420;SDS011;10871;50.144;8.428;2024-03-08T02:33:14;34.05;;;18.63;;
21420;SDS011;10871;50.144;8.428;2024-03-08T02:35:44;32.85;;;17.67;;
21420;SDS011;10871;50.144;8.428;2024-03-08T02:38:14;30.05;;;18.27;;
21420;SDS011;10871;50.144;8.428;2024-03-08T02:40:45;31.05;;;18.25;;
21420;SDS011;10871;50.144;8.428;2024-03-08T02:43:13;32.25;;;18.70;;
21420;SDS011;10871;50.144;8.428;2024-03-08T02:45:41;34.97;;;18.13;;
21420;SDS011;10871;50.144;8.428;2024-03-08T02:48:12;31.85;;;19.10;;
21420;SDS011;10871;50.144;8.428;2024-03-08T02:50:38;33.20;;;19.33;;
21420;SDS011;10871;50.144;8.428;2024-03-08T02:53:12;29.90;;;18.13;;
21420;SDS011;10871;50.144;8.428;2024-03-08T02:55:40;31.38;;;18.27;;
21420;SDS011;10871;50.144;8.428;2024-03-08T02:58:08;30.17;;;18.52;;
21420;SDS011;10871;50.144;8.428;2024-03-08T03:00:38;33.00;;;18.52;;
21420;SDS011;10871;50.144;8.428;2024-03-08T03:03:11;30.73;;;18.05;;
21420;SDS011;10871;50.144;8.428;2024-03-08T03:05:38;30.85;;;18.48;;
21420;SDS011;10871;50.144;8.428;2024-03-08T03:08:12;35.22;;;18.73;;
21420;SDS011;10871;50.144;8.428;2024-03-08T03:10:39;30.85;;;19.27;;
21420;SDS011;10871;50.144;8.428;2024-03-08T03:13:06;33.60;;;18.23;;
21420;SDS011;10871;50.144;8.428;2024-03-08T03:15:35;28.75;;;18.67;;
21420;SDS011;10871;50.144;8.428;2024-03-08T03:18:04;33.63;;;19.80;;
21420;SDS011;10871;50.144;8.428;2024-03-08T03:20:35;34.50;;;18.73;;
21420;SDS011;10871;50.144;8.428;2024-03-08T03:23:09;31.85;;;19.98;;
21420;SDS011;10871;50.144;8.428;2024-03-08T03:25:40;36.95;;;20.45;;
21420;SDS011;10871;50.144;8.428;2024-03-08T03:28:07;30.85;;;18.67;;
21420;SDS011;10871;50.144;8.428;2024-03-08T03:30:37;32.28;;;18.55;;
21420;SDS011;10871;50.144;8.428;2024-03-08T03:33:04;35.28;;;20.08;;
21420;SDS011;10871;50.144;8.428;2024-03-08T03:35:34;32.05;;;18.73;;
21420;SDS011;10871;50.144;8.428;2024-03-08T03:38:04;37.03;;;19.80;;
21420;SDS011;10871;50.144;8.428;2024-03-08T03:40:37;36.05;;;19.83;;
21420;SDS011;10871;50.144;8.428;2024-03-08T03:43:04;34.72;;;20.10;;
21420;SDS011;10871;50.144;8.428;2024-03-08T03:45:31;35.15;;;19.25;;
21420;SDS011;10871;50.144;8.428;2024-03-08T03:48:03;35.25;;;19.13;;
21420;SDS011;10871;50.144;8.428;2024-03-08T03:50:31;37.67;;;20.17;;
21420;SDS011;10871;50.144;8.428;2024-03-08T03:53:02;35.03;;;20.20;;
21420;SDS011;10871;50.144;8.428;2024-03-08T03:55:29;33.40;;;19.77;;
21420;SDS011;10871;50.144;8.428;2024-03-08T03:57:56;33.72;;;19.15;;
21420;SDS011;10871;50.144;8.428;2024-03-08T04:00:26;35.45;;;19.45;;
21420;SDS011;10871;50.144;8.428;2024-03-08T04:02:53;34.10;;;19.35;;
21420;SDS011;10871;50.144;8.428;2024-03-08T04:05:22;34.30;;;19.50;;
21420;SDS011;10871;50.144;8.428;2024-03-08T04:07:49;38.88;;;19.58;;
21420;SDS011;10871;50.144;8.428;2024-03-08T04:10:16;35.97;;;20.83;;
21420;SDS011;10871;50.144;8.428;2024-03-08T04:12:42;37.45;;;21.00;;
21420;SDS011;10871;50.144;8.428;2024-03-08T04:15:09;33.95;;;20.88;;
21420;SDS011;10871;50.144;8.428;2024-03-08T04:17:37;36.53;;;20.40;;
21420;SDS011;10871;50.144;8.428;2024-03-08T04:20:05;38.45;;;20.75;;
21420;SDS011;10871;50.144;8.428;2024-03-08T04:22:36;35.17;;;20.90;;
21420;SDS011;10871;50.144;8.428;2024-03-08T04:25:03;32.80;;;19.25;;
21420;SDS011;10871;50.144;8.428;2024-03-08T04:27:32;36.17;;;21.17;;
21420;SDS011;10871;50.144;8.428;2024-03-08T04:30:02;36.50;;;21.20;;
21420;SDS011;10871;50.144;8.428;2024-03-08T04:32:29;41.67;;;21.85;;
21420;SDS011;10871;50.144;8.428;2024-03-08T04:34:56;35.83;;;21.42;;
21420;SDS011;10871;50.144;8.428;2024-03-08T04:37:23;35.25;;;20.23;;
21420;SDS011;10871;50.144;8.428;2024-03-08T04:39:50;34.55;;;20.13;;
21420;SDS011;10871;50.144;8.428;2024-03-08T04:42:16;35.90;;;20.23;;
21420;SDS011;10871;50.144;8.428;2024-03-08T04:44:44;36.67;;;19.92;;
21420;SDS011;10871;50.144;8.428;2024-03-08T04:47:12;37.42;;;21.98;;
21420;SDS011;10871;50.144;8.428;2024-03-08T04:49:38;38.78;;;21.73;;
21420;SDS011;10871;50.144;8.428;2024-03-08T04:52:06;39.25;;;21.63;;
21420;SDS011;10871;50.144;8.428;2024-03-08T04:54:34;36.35;;;21.02;;
21420;SDS011;10871;50.144;8.428;2024-03-08T04:57:08;38.92;;;21.73;;
21420;SDS011;10871;50.144;8.428;2024-03-08T04:59:35;38.25;;;20.35;;
21420;SDS011;10871;50.144;8.428;2024-03-08T05:02:03;38.97;;;21.83;;
21420;SDS011;10871;50.144;8.428;2024-03-08T05:04:30;39.15;;;21.08;;
21420;SDS011;10871;50.144;8.428;2024-03-08T05:06:57;36.88;;;20.58;;
21420;SDS011;10871;50.144;8.428;2024-03-08T05:09:28;39.85;;;21.67;;
21420;SDS011;10871;50.144;8.428;2024-03-08T05:11:55;37.70;;;21.52;;
21420;SDS011;10871;50.144;8.428;2024-03-08T05:14:23;43.15;;;21.55;;
21420;SDS011;10871;50.144;8.428;2024-03-08T05:16:51;36.55;;;21.40;;
21420;SDS011;10871;50.144;8.428;2024-03-08T05:19:19;37.22;;;21.23;;
21420;SDS011;10871;50.144;8.428;2024-03-08T05:21:46;37.78;;;21.45;;
21420;SDS011;10871;50.144;8.428;2024-03-08T05:24:13;38.88;;;22.10;;
21420;SDS011;10871;50.144;8.428;2024-03-08T05:26:41;43.58;;;22.10;;
21420;SDS011;10871;50.144;8.428;2024-03-08T05:29:08;39.70;;;21.60;;
21420;SDS011;10871;50.144;8.428;2024-03-08T05:31:37;40.63;;;21.92;;
21420;SDS011;10871;50.144;8.428;2024-03-08T05:34:11;37.72;;;21.23;;
21420;SDS011;10871;50.144;8.428;2024-03-08T05:36:41;38.97;;;21.80;;
21420;SDS011;10871;50.144;8.428;2024-03-08T05:39:10;41.72;;;22.52;;
21420;SDS011;10871;50.144;8.428;2024-03-08T05:41:38;44.33;;;22.60;;
21420;SDS011;10871;50.144;8.428;2024-03-08T05:44:06;41.13;;;22.48;;
21420;SDS011;10871;50.144;8.428;2024-03-08T05:46:34;40.40;;;22.58;;
21420;SDS011;10871;50.144;8.428;2024-03-08T05:49:03;39.03;;;22.02;;
21420;SDS011;10871;50.144;8.428;2024-03-08T05:51:33;36.95;;;20.98;;
21420;SDS011;10871;50.144;8.428;2024-03-08T05:54:04;38.38;;;22.27;;
21420;SDS011;10871;50.144;8.428;2024-03-08T05:56:32;39.90;;;22.50;;
21420;SDS011;10871;50.144;8.428;2024-03-08T05:59:01;37.45;;;21.65;;
21420;SDS011;10871;50.144;8.428;2024-03-08T06:01:30;40.67;;;20.95;;
21420;SDS011;10871;50.144;8.428;2024-03-08T06:04:03;31.37;;;16.97;;
21420;SDS011;10871;50.144;8.428;2024-03-08T06:06:30;40.90;;;23.17;;
21420;SDS011;10871;50.144;8.428;2024-03-08T06:08:56;40.10;;;22.63;;
21420;SDS011;10871;50.144;8.428;2024-03-08T06:11:25;41.50;;;22.85;;
21420;SDS011;10871;50.144;8.428;2024-03-08T06:13:53;42.72;;;22.98;;
21420;SDS011;10871;50.144;8.428;2024-03-08T06:16:26;40.97;;;22.40;;
21420;SDS011;10871;50.144;8.428;2024-03-08T06:18:56;43.05;;;23.50;;
21420;SDS011;10871;50.144;8.428;2024-03-08T06:21:23;40.55;;;22.17;;
21420;SDS011;10871;50.144;8.428;2024-03-08T06:23:55;39.30;;;21.13;;
21420;SDS011;10871;50.144;8.428;2024-03-08T06:26:24;39.55;;;23.08;;
21420;SDS011;10871;50.144;8.428;2024-03-08T06:28:56;37.83;;;21.77;;
21420;SDS011;10871;50.144;8.428;2024-03-08T06:31:25;37.85;;;21.98;;
21420;SDS011;10871;50.144;8.428;2024-03-08T06:33:52;36.20;;;21.20;;
21420;SDS011;10871;50.144;8.428;2024-03-08T06:36:21;40.45;;;21.90;;
21420;SDS011;10871;50.144;8.428;2024-03-08T06:38:48;35.85;;;20.85;;
21420;SDS011;10871;50.144;8.428;2024-03-08T06:41:15;36.55;;;21.77;;
21420;SDS011;10871;50.144;8.428;2024-03-08T06:43:45;42.00;;;22.45;;
21420;SDS011;10871;50.144;8.428;2024-03-08T06:46:14;36.58;;;21.10;;
21420;SDS011;10871;50.144;8.428;2024-03-08T06:48:41;38.05;;;21.85;;
21420;SDS011;10871;50.144;8.428;2024-03-08T06:51:08;37.60;;;20.80;;
21420;SDS011;10871;50.144;8.428;2024-03-08T06:53:35;34.30;;;20.85;;
21420;SDS011;10871;50.144;8.428;2024-03-08T06:56:02;32.75;;;19.90;;
21420;SDS011;10871;50.144;8.428;2024-03-08T06:58:29;36.13;;;19.70;;
21420;SDS011;10871;50.144;8.428;2024-03-08T07:00:56;31.70;;;18.52;;
21420;SDS011;10871;50.144;8.428;2024-03-08T07:03:28;33.72;;;19.23;;
21420;SDS011;10871;50.144;8.428;2024-03-08T07:05:57;30.55;;;17.98;;
21420;SDS011;10871;50.144;8.428;2024-03-08T07:08:25;29.48;;;18.42;;
21420;SDS011;10871;50.144;8.428;2024-03-08T07:10:56;29.75;;;19.80;;
21420;SDS011;10871;50.144;8.428;2024-03-08T07:13:24;28.85;;;18.40;;
21420;SDS011;10871;50.144;8.428;2024-03-08T07:15:52;27.90;;;17.67;;
21420;SDS011;10871;50.144;8.428;2024-03-08T07:18:19;26.67;;;17.77;;
21420;SDS011;10871;50.144;8.428;2024-03-08T07:20:46;29.42;;;19.30;;
21420;SDS011;10871;50.144;8.428;2024-03-08T07:23:12;27.48;;;18.73;;
21420;SDS011;10871;50.144;8.428;2024-03-08T07:26:02;27.73;;;18.65;;
21420;SDS011;10871;50.144;8.428;2024-03-08T07:28:29;31.38;;;20.45;;
21420;SDS011;10871;50.144;8.428;2024-03-08T07:31:00;30.40;;;19.83;;
21420;SDS011;10871;50.144;8.428;2024-03-08T07:33:40;28.77;;;19.52;;
21420;SDS011;10871;50.144;8.428;2024-03-08T07:36:11;28.75;;;19.05;;
21420;SDS011;10871;50.144;8.428;2024-03-08T07:38:38;27.63;;;18.75;;
21420;SDS011;10871;50.144;8.428;2024-03-08T07:41:04;26.45;;;19.33;;
21420;SDS011;10871;50.144;8.428;2024-03-08T07:43:31;24.35;;;18.35;;
21420;SDS011;10871;50.144;8.428;2024-03-08T07:45:59;27.50;;;19.13;;
21420;SDS011;10871;50.144;8.428;2024-03-08T07:48:26;23.23;;;18.42;;
21420;SDS011;10871;50.144;8.428;2024-03-08T07:50:53;24.83;;;17.88;;
21420;SDS011;10871;50.144;8.428;2024-03-08T07:53:20;21.60;;;17.60;;
21420;SDS011;10871;50.144;8.428;2024-03-08T07:55:48;23.15;;;18.55;;
21420;SDS011;10871;50.144;8.428;2024-03-08T07:58:15;26.45;;;19.73;;
21420;SDS011;10871;50.144;8.428;2024-03-08T08:00:41;23.55;;;19.55;;
21420;SDS011;10871;50.144;8.428;2024-03-08T08:03:09;24.10;;;18.58;;
21420;SDS011;10871;50.144;8.428;2024-03-08T08:05:36;26.33;;;19.73;;
21420;SDS011;10871;50.144;8.428;2024-03-08T08:08:05;25.13;;;18.77;;
21420;SDS011;10871;50.144;8.428;2024-03-08T08:10:33;21.00;;;18.33;;
21420;SDS011;10871;50.144;8.428;2024-03-08T08:13:00;24.65;;;20.00;;
21420;SDS011;10871;50.144;8.428;2024-03-08T08:15:30;26.33;;;18.85;;
21420;SDS011;10871;50.144;8.428;2024-03-08T08:17:57;22.02;;;18.88;;
21420;SDS011;10871;50.144;8.428;2024-03-08T08:20:24;22.98;;;19.77;;
21420;SDS011;10871;50.144;8.428;2024-03-08T08:22:52;23.17;;;18.80;;
21420;SDS011;10871;50.144;8.428;2024-03-08T08:25:21;22.20;;;18.52;;
21420;SDS011;10871;50.144;8.428;2024-03-08T08:27:50;24.13;;;18.80;;
21420;SDS011;10871;50.144;8.428;2024-03-08T08:30:17;24.92;;;19.60;;
21420;SDS011;10871;50.144;8.428;2024-03-08T08:32:44;24.77;;;19.38;;
21420;SDS011;10871;50.144;8.428;2024-03-08T08:35:11;22.80;;;18.52;;
21420;SDS011;10871;50.144;8.428;2024-03-08T08:37:39;25.88;;;20.20;;
21420;SDS011;10871;50.144;8.428;2024-03-08T08:40:06;21.88;;;19.45;;
21420;SDS011;10871;50.144;8.428;2024-03-08T08:42:36;23.63;;;20.00;;
21420;SDS011;10871;50.144;8.428;2024-03-08T08:45:07;21.10;;;18.58;;
21420;SDS011;10871;50.144;8.428;2024-03-08T08:47:43;21.83;;;19.02;;
21420;SDS011;10871;50.144;8.428;2024-03-08T08:50:09;21.95;;;19.63;;
21420;SDS011;10871;50.144;8.428;2024-03-08T08:52:38;22.75;;;19.35;;
21420;SDS011;10871;50.144;8.428;2024-03-08T08:55:06;22.52;;;20.08;;
21420;SDS011;10871;50.144;8.428;2024-03-08T08:57:33;23.38;;;20.65;;
21420;SDS011;10871;50.144;8.428;2024-03-08T09:00:00;22.80;;;20.40;;
21420;SDS011;10871;50.144;8.428;2024-03-08T09:02:27;21.95;;;19.50;;
21420;SDS011;10871;50.144;8.428;2024-03-08T09:04:54;23.10;;;19.55;;
21420;SDS011;10871;50.144;8.428;2024-03-08T09:07:20;22.40;;;19.80;;
21420;SDS011;10871;50.144;8.428;2024-03-08T09:09:48;22.50;;;18.83;;
21420;SDS011;10871;50.144;8.428;2024-03-08T09:12:15;22.67;;;18.98;;
21420;SDS011;10871;50.144;8.428;2024-03-08T09:14:43;22.33;;;19.90;;
21420;SDS011;10871;50.144;8.428;2024-03-08T09:17:10;22.50;;;19.60;;
21420;SDS011;10871;50.144;8.428;2024-03-08T09:19:38;22.88;;;19.27;;
21420;SDS011;10871;50.144;8.428;2024-03-08T09:22:06;21.73;;;19.25;;
21420;SDS011;10871;50.144;8.428;2024-03-08T09:24:33;21.38;;;19.17;;
21420;SDS011;10871;50.144;8.428;2024-03-08T09:26:59;23.17;;;19.00;;
21420;SDS011;10871;50.144;8.428;2024-03-08T09:29:27;22.73;;;19.92;;
21420;SDS011;10871;50.144;8.428;2024-03-08T09:31:54;20.60;;;18.58;;
21420;SDS011;10871;50.144;8.428;2024-03-08T09:34:22;21.05;;;18.95;;
21420;SDS011;10871;50.144;8.428;2024-03-08T09:36:57;20.25;;;18.15;;
21420;SDS011;10871;50.144;8.428;2024-03-08T09:39:24;20.92;;;18.85;;
21420;SDS011;10871;50.144;8.428;2024-03-08T09:41:53;20.30;;;18.10;;
21420;SDS011;10871;50.144;8.428;2024-03-08T09:44:22;20.92;;;18.65;;
21420;SDS011;10871;50.144;8.428;2024-03-08T09:46:53;20.83;;;18.73;;
21420;SDS011;10871;50.144;8.428;2024-03-08T09:49:19;20.08;;;17.80;;
21420;SDS011;10871;50.144;8.428;2024-03-08T09:51:46;20.33;;;18.23;;
21420;SDS011;10871;50.144;8.428;2024-03-08T09:54:14;20.27;;;17.58;;
21420;SDS011;10871;50.144;8.428;2024-03-08T09:56:49;21.60;;;19.00;;
21420;SDS011;10871;50.144;8.428;2024-03-08T09:59:17;21.58;;;19.30;;
21420;SDS011;10871;50.144;8.428;2024-03-08T10:02:09;20.88;;;18.67;;
21420;SDS011;10871;50.144;8.428;2024-03-08T10:04:39;21.52;;;19.00;;
21420;SDS011;10871;50.144;8.428;2024-03-08T10:07:08;20.27;;;17.55;;
21420;SDS011;10871;50.144;8.428;2024-03-08T10:09:36;19.13;;;17.13;;
21420;SDS011;10871;50.144;8.428;2024-03-08T10:12:03;19.80;;;17.70;;
21420;SDS011;10871;50.144;8.428;2024-03-08T10:14:31;19.77;;;17.52;;
21420;SDS011;10871;50.144;8.428;2024-03-08T10:16:58;19.40;;;17.38;;
21420;SDS011;10871;50.144;8.428;2024-03-08T10:19:27;18.67;;;16.85;;
21420;SDS011;10871;50.144;8.428;2024-03-08T10:21:56;17.80;;;15.90;;
21420;SDS011;10871;50.144;8.428;2024-03-08T10:24:25;18.35;;;16.55;;
21420;SDS011;10871;50.144;8.428;2024-03-08T10:26:58;18.92;;;16.83;;
21420;SDS011;10871;50.144;8.428;2024-03-08T10:29:26;17.52;;;15.82;;
21420;SDS011;10871;50.144;8.428;2024-03-08T10:31:53;18.75;;;16.27;;
21420;SDS011;10871;50.144;8.428;2024-03-08T10:34:19;17.83;;;16.02;;
21420;SDS011;10871;50.144;8.428;2024-03-08T10:36:46;18.60;;;16.58;;
21420;SDS011;10871;50.144;8.428;2024-03-08T10:39:24;18.10;;;16.33;;
21420;SDS011;10871;50.144;8.428;2024-03-08T10:41:52;18.05;;;16.15;;
21420;SDS011;10871;50.144;8.428;2024-03-08T10:47:02;17.05;;;15.35;;
21420;SDS011;10871;50.144;8.428;2024-03-08T10:49:32;15.88;;;14.27;;
21420;SDS011;10871;50.144;8.428;2024-03-08T10:52:02;15.00;;;13.57;;
21420;SDS011;10871;50.144;8.428;2024-03-08T10:54:30;15.52;;;13.95;;
21420;SDS011;10871;50.144;8.428;2024-03-08T10:56:58;15.23;;;13.73;;
21420;SDS011;10871;50.144;8.428;2024-03-08T10:59:25;15.48;;;13.98;;
21420;SDS011;10871;50.144;8.428;2024-03-08T11:01:53;15.30;;;13.77;;
21420;SDS011;10871;50.144;8.428;2024-03-08T11:04:20;14.45;;;12.82;;
21420;SDS011;10871;50.144;8.428;2024-03-08T11:06:50;14.63;;;13.23;;
21420;SDS011;10871;50.144;8.428;2024-03-08T11:12:18;14.23;;;12.73;;
21420;SDS011;10871;50.144;8.428;2024-03-08T11:14:45;14.00;;;12.68;;
21420;SDS011;10871;50.144;8.428;2024-03-08T11:17:15;13.65;;;12.35;;
21420;SDS011;10871;50.144;8.428;2024-03-08T11:19:48;13.32;;;12.00;;
21420;SDS011;10871;50.144;8.428;2024-03-08T11:22:21;13.65;;;12.35;;
21420;SDS011;10871;50.144;8.428;2024-03-08T11:25:09;14.15;;;12.75;;
21420;SDS011;10871;50.144;8.428;2024-03-08T11:27:39;13.40;;;12.10;;
21420;SDS011;10871;50.144;8.428;2024-03-08T11:30:18;15.18;;;13.68;;
21420;SDS011;10871;50.144;8.428;2024-03-08T11:32:50;15.50;;;13.98;;
21420;SDS011;10871;50.144;8.428;2024-03-08T11:35:19;14.27;;;12.65;;
21420;SDS011;10871;50.144;8.428;2024-03-08T11:37:47;13.52;;;12.23;;
21420;SDS011;10871;50.144;8.428;2024-03-08T11:40:14;13.70;;;12.30;;
21420;SDS011;10871;50.144;8.428;2024-03-08T11:42:46;14.55;;;13.05;;
21420;SDS011;10871;50.144;8.428;2024-03-08T11:45:18;15.13;;;13.60;;
21420;SDS011;10871;50.144;8.428;2024-03-08T11:47:48;14.82;;;13.43;;
21420;SDS011;10871;50.144;8.428;2024-03-08T11:50:16;14.75;;;12.95;;
21420;SDS011;10871;50.144;8.428;2024-03-08T11:52:46;13.95;;;12.65;;
21420;SDS011;10871;50.144;8.428;2024-03-08T11:55:12;14.65;;;13.25;;
21420;SDS011;10871;50.144;8.428;2024-03-08T11:57:39;14.57;;;13.18;;
21420;SDS011;10871;50.144;8.428;2024-03-08T12:00:06;13.98;;;12.57;;
21420;SDS011;10871;50.144;8.428;2024-03-08T12:03:00;14.38;;;12.88;;
21420;SDS011;10871;50.144;8.428;2024-03-08T12:05:26;14.40;;;13.00;;
21420;SDS011;10871;50.144;8.428;2024-03-08T12:07:57;14.65;;;13.05;;
21420;SDS011;10871;50.144;8.428;2024-03-08T12:10:27;15.07;;;13.52;;
21420;SDS011;10871;50.144;8.428;2024-03-08T12:12:55;14.43;;;12.80;;
21420;SDS011;10871;50.144;8.428;2024-03-08T12:15:23;15.18;;;13.57;;
21420;SDS011;10871;50.144;8.428;2024-03-08T12:17:50;15.20;;;13.35;;
21420;SDS011;10871;50.144;8.428;2024-03-08T12:20:21;14.05;;;12.57;;
21420;SDS011;10871;50.144;8.428;2024-03-08T12:22:48;14.80;;;13.20;;
21420;SDS011;10871;50.144;8.428;2024-03-08T12:25:17;14.57;;;13.07;;
21420;SDS011;10871;50.144;8.428;2024-03-08T12:27:44;15.30;;;13.40;;
21420;SDS011;10871;50.144;8.428;2024-03-08T12:30:24;15.32;;;13.45;;
21420;SDS011;10871;50.144;8.428;2024-03-08T12:32:56;15.27;;;13.68;;
21420;SDS011;10871;50.144;8.428;2024-03-08T12:35:24;15.55;;;12.73;;
21420;SDS011;10871;50.144;8.428;2024-03-08T12:37:58;15.70;;;12.38;;
21420;SDS011;10871;50.144;8.428;2024-03-08T12:42:52;17.75;;;14.98;;
21420;SDS011;10871;50.144;8.428;2024-03-08T12:45:19;16.50;;;14.27;;
21420;SDS011;10871;50.144;8.428;2024-03-08T12:47:48;19.08;;;15.10;;
21420;SDS011;10871;50.144;8.428;2024-03-08T12:50:16;17.20;;;13.40;;
21420;SDS011;10871;50.144;8.428;2024-03-08T12:52:44;18.63;;;15.25;;
21420;SDS011;10871;50.144;8.428;2024-03-08T12:55:11;19.83;;;14.98;;
21420;SDS011;10871;50.144;8.428;2024-03-08T12:57:38;19.83;;;15.55;;
21420;SDS011;10871;50.144;8.428;2024-03-08T13:00:05;19.20;;;14.25;;
21420;SDS011;10871;50.144;8.428;2024-03-08T13:02:32;18.65;;;14.18;;
21420;SDS011;10871;50.144;8.428;2024-03-08T13:04:58;18.80;;;13.77;;
21420;SDS011;10871;50.144;8.428;2024-03-08T13:07:27;19.60;;;15.02;;
21420;SDS011;10871;50.144;8.428;2024-03-08T13:09:55;22.83;;;15.52;;
21420;SDS011;10871;50.144;8.428;2024-03-08T13:12:23;19.77;;;15.55;;
21420;SDS011;10871;50.144;8.428;2024-03-08T13:14:50;21.70;;;15.98;;
21420;SDS011;10871;50.144;8.428;2024-03-08T13:17:17;20.80;;;16.10;;
21420;SDS011;10871;50.144;8.428;2024-03-08T13:19:44;21.70;;;15.20;;
21420;SDS011;10871;50.144;8.428;2024-03-08T13:22:13;20.85;;;15.82;;
21420;SDS011;10871;50.144;8.428;2024-03-08T13:24:43;22.73;;;14.52;;
21420;SDS011;10871;50.144;8.428;2024-03-08T13:27:11;18.92;;;14.38;;
21420;SDS011;10871;50.144;8.428;2024-03-08T13:29:48;19.25;;;14.02;;
21420;SDS011;10871;50.144;8.428;2024-03-08T13:32:15;19.40;;;12.82;;
21420;SDS011;10871;50.144;8.428;2024-03-08T13:34:43;22.42;;;14.68;;
21420;SDS011;10871;50.144;8.428;2024-03-08T13:37:10;22.88;;;15.18;;
21420;SDS011;10871;50.144;8.428;2024-03-08T13:39:38;21.70;;;15.38;;
21420;SDS011;10871;50.144;8.428;2024-03-08T13:42:07;24.27;;;15.75;;
21420;SDS011;10871;50.144;8.428;2024-03-08T13:44:43;20.40;;;15.05;;
21420;SDS011;10871;50.144;8.428;2024-03-08T13:47:10;22.02;;;15.55;;
21420;SDS011;10871;50.144;8.428;2024-03-08T13:49:38;19.20;;;14.68;;
21420;SDS011;10871;50.144;8.428;2024-03-08T13:52:05;19.30;;;14.27;;
21420;SDS011;10871;50.144;8.428;2024-03-08T13:54:31;25.17;;;15.65;;
21420;SDS011;10871;50.144;8.428;2024-03-08T13:56:58;20.83;;;15.73;;
21420;SDS011;10871;50.144;8.428;2024-03-08T13:59:25;21.55;;;15.65;;
21420;SDS011;10871;50.144;8.428;2024-03-08T14:01:55;22.58;;;16.85;;
21420;SDS011;10871;50.144;8.428;2024-03-08T14:04:23;24.23;;;16.25;;
21420;SDS011;10871;50.144;8.428;2024-03-08T14:06:50;23.33;;;16.23;;
21420;SDS011;10871;50.144;8.428;2024-03-08T14:09:26;21.60;;;15.43;;
21420;SDS011;10871;50.144;8.428;2024-03-08T14:11:52;22.40;;;15.45;;
21420;SDS011;10871;50.144;8.428;2024-03-08T14:14:22;22.52;;;15.90;;
21420;SDS011;10871;50.144;8.428;2024-03-08T14:16:54;23.38;;;15.50;;
21420;SDS011;10871;50.144;8.428;2024-03-08T14:19:25;22.13;;;15.82;;
21420;SDS011;10871;50.144;8.428;2024-03-08T14:21:53;25.27;;;16.25;;
21420;SDS011;10871;50.144;8.428;2024-03-08T14:24:20;21.05;;;16.05;;
21420;SDS011;10871;50.144;8.428;2024-03-08T14:26:47;21.30;;;15.95;;
21420;SDS011;10871;50.144;8.428;2024-03-08T14:29:15;24.48;;;15.23;;
21420;SDS011;10871;50.144;8.428;2024-03-08T14:31:43;21.00;;;15.75;;
21420;SDS011;10871;50.144;8.428;2024-03-08T14:34:09;20.92;;;15.52;;
21420;SDS011;10871;50.144;8.428;2024-03-08T14:36:37;20.70;;;14.65;;